Archival Weather

Prince Abdulmajeed Bin Abdula

Prince Abdulmajeed Bin Abdula, Saudi Arabia (OEAO)

Report from: Monday, May 23, 2022 1:00 PM UTC
Current time: Tuesday, August 16, 2022 6:17 AM UTC

Current weather
Weather history
Weather forecast

Temperature35.0°C (95.0°F)
Heat index32.3°C (90.2°F)
Dew point-4.0°C (24.8°F)
Winds 6 kts (3.1 m/s, 6.9 mph) North-Northeast (30°)
Clouds Sky clear
Altimeter29.80 in.Hg (1009 mB)
Relative humidity8 %
Density altitude2,490 ft. (759 m)
Remarks Ceiling and visibility OK
No significant changes expected in the next two hours
Flight conditions Visual Meteorological Conditions
Raw dataOEAO 231300Z 03006KT CAVOK 35/M04 Q1009 NOSIG
An error has occurred. This application may no longer respond until reloaded. Reload 🗙